Flight Track Log - Related Links

Times and Time Zones

All times are in EDT time to prevent confusion due to time zone crossing. See the TCF3494 flight status page for this flight to view local times or setup timezone preferences in your user account.

Time Position Orientation Groundspeed Altitude Reporting Facility
EDT Latitude Longitude Course Direction KTS MPH feet Rate Location/Type
Wed 09:29:58 PM 42.0167 -87.9333 North 158 182 2,200  Level Chicago TRACON
Wed 09:30:58 PM 42.0667 -87.9167 14° North 215 247 3,800 1,881 Climbing Chicago TRACON
Wed 09:32:00 PM 42.4451 -87.7471 10° North  Level FlightAware Approximate
Wed 09:32:12 PM 42.1453 -87.8756 21° North 253 291 6,400  Level Chicago Center
Wed 09:33:00 PM 42.5630 -87.7035 12° North  Level FlightAware Approximate
Wed 09:33:13 PM 42.2161 -87.8375 22° Northeast 272 313 8,600  Level Chicago Center
Wed 09:34:00 PM 42.6838 -87.6665 14° North  Level FlightAware Approximate
Wed 09:34:15 PM 42.2919 -87.8172 11° North 282 325 11,000  Level Chicago Center
Wed 09:35:00 PM 42.8046 -87.6333 North  Level FlightAware Approximate
Wed 09:35:17 PM 42.3806 -87.7931 11° North 294 338 12,400  Level Chicago Center
Wed 09:36:19 PM 42.4728 -87.7592 15° North 335 386 13,700 1,366 Climbing Chicago Center
Wed 09:37:20 PM 42.5758 -87.7217 15° North 354 407 15,200 1,463 Climbing Chicago Center
Wed 09:38:22 PM 42.6678 -87.6892 15° North 365 420 16,700 1,258 Climbing Chicago Center
Wed 09:39:24 PM 42.7678 -87.6514 15° North 371 427 17,800 1,694 Climbing Chicago Center
Wed 09:40:26 PM 42.8414 -87.5028 56° Northeast 414 476 20,200 1,951 Climbing Chicago Center
Wed 09:41:27 PM 42.8569 -87.3594 82° East 434 499 21,800 1,561 Climbing Chicago Center
Wed 09:42:29 PM 42.8750 -87.1917 82° East 448 516 23,400 1,452 Climbing Chicago Center
Wed 09:43:31 PM 42.8925 -87.0219 82° East 453 521 24,800 1,415 Climbing Chicago Center
Wed 09:44:32 PM 42.9144 -86.8128 82° East 466 536 26,300 1,317 Climbing Chicago Center
Wed 09:45:34 PM 42.9325 -86.6350 82° East 474 545 27,500 1,065 Climbing Chicago Center
Wed 09:46:36 PM 42.9506 -86.4536 82° East 482 555 28,500 1,113 Climbing Chicago Center
Wed 09:47:38 PM 42.9683 -86.2706 82° East 489 563 29,800 1,171 Climbing Chicago Center
Wed 09:48:39 PM 42.9847 -86.0919 83° East 484 557 30,900 976 Climbing Chicago Center
Wed 09:49:41 PM 43.0031 -85.8978 83° East 485 558 31,800 829 Climbing Chicago Center
Wed 09:50:42 PM 43.0214 -85.6989 83° East 493 567 32,600 780 Climbing Chicago Center
Wed 09:51:44 PM 43.0383 -85.5150 83° East 491 565 33,400 629 Climbing Chicago Center
Wed 09:52:46 PM 43.0428 -85.3272 88° East 490 564 33,900 488 Climbing Chicago Center
Wed 09:53:47 PM 43.0456 -85.1375 89° East 499 574 34,400 537 Climbing Chicago Center
Wed 09:54:49 PM 43.0478 -84.9472 89° East 501 577 35,000 290 Climbing Chicago Center
Wed 09:55:51 PM 43.0508 -84.7128 89° East 511 588 35,000  Level Chicago Center
Wed 09:56:52 PM 43.0517 -84.5122 90° East 525 604 35,000  Level Chicago Center
Wed 09:57:54 PM 43.0528 -84.3094 90° East 532 612 35,000  Level Chicago Center
Wed 09:58:57 PM 43.0533 -84.1031 90° East 540 621 35,000  Level Chicago Center
Wed 10:00:24 PM 43.0514 -83.7853 90° East 537 618 35,000  Level Cleveland Center
Wed 10:01:24 PM 43.0486 -83.5778 91° East 537 618 35,000  Level Cleveland Center
Wed 10:02:24 PM 43.0517 -83.3789 89° East 537 618 35,000  Level Cleveland Center
Wed 10:03:24 PM 43.0500 -83.1714 91° East 537 618 35,000  Level Cleveland Center
Wed 10:04:24 PM 43.0461 -82.9667 91° East 537 618 35,000  Level Cleveland Center
Wed 10:05:24 PM 43.0442 -82.7592 91° East 537 618 35,000  Level Cleveland Center
Wed 10:06:24 PM 43.0414 -82.5517 91° East 537 618 35,000  Level Cleveland Center
Wed 10:07:20 PM 43.0333 -82.3500 93° East 540 621 35,000  Level Toronto Center
Wed 10:08:20 PM 43.0167 -82.1333 96° East 540 621 35,000  Level Toronto Center
Wed 10:09:20 PM 43.0167 -81.9333 90° East 540 621 35,000  Level Toronto Center
Wed 10:10:20 PM 43.0167 -81.7333 90° East 540 621 35,000  Level Toronto Center
Wed 10:11:20 PM 43.0167 -81.5333 90° East 540 621 35,000  Level Toronto Center
Wed 10:12:20 PM 43.0000 -81.3167 96° East 540 621 35,000  Level Toronto Center
Wed 10:13:20 PM 43.0000 -81.1167 90° East 540 621 35,000  Level Toronto Center
Wed 10:14:20 PM 42.9833 -80.9167 96° East 540 621 35,000  Level Toronto Center
Wed 10:15:20 PM 43.0000 -80.7000 84° East 540 621 35,000  Level Toronto Center
Wed 10:16:20 PM 43.0000 -80.5000 90° East 540 621 35,000  Level Toronto Center
Wed 10:17:20 PM 42.9833 -80.2667 95° East 540 621 35,000  Level Toronto Center
Wed 10:18:20 PM 42.9833 -80.1167 90° East 540 621 35,000  Level Toronto Center
Wed 10:19:20 PM 42.9667 -79.8833 95° East 530 610 35,000  Level Toronto Center
Wed 10:20:20 PM 42.9667 -79.6833 90° East 530 610 35,000  Level Toronto Center
Wed 10:21:20 PM 42.9500 -79.4667 96° East 540 621 35,000  Level Toronto Center
Wed 10:22:20 PM 42.9500 -79.2833 90° East 540 621 35,000  Level Toronto Center
Wed 10:23:20 PM 42.9333 -79.0667 96° East 530 610 35,000  Level Toronto Center
Wed 10:24:20 PM 42.9333 -78.8833 90° East 530 610 35,000  Level Toronto Center
Wed 10:25:20 PM 42.9333 -78.6833 90° East 520 598 35,000  Level Toronto Center
Wed 10:26:20 PM 42.9000 -78.5000 104° East 520 598 35,000  Level Toronto Center
Wed 10:27:20 PM 42.8667 -78.2833 102° East 520 598 35,000  Level Toronto Center
Wed 10:28:20 PM 42.8500 -78.0833 96° East 520 598 35,000  Level Toronto Center
Wed 10:29:20 PM 42.8333 -77.9000 97° East 520 598 35,000  Level Toronto Center
Wed 10:30:20 PM 42.8000 -77.7000 103° East 520 598 35,000  Level Toronto Center
Wed 10:31:20 PM 42.7833 -77.5167 97° East 520 598 35,000  Level Toronto Center
Wed 10:32:20 PM 42.7500 -77.3167 103° East 520 598 35,000  Level Toronto Center
Wed 10:33:20 PM 42.7167 -77.1333 104° East 520 598 35,000  Level Toronto Center
Wed 10:34:20 PM 42.7000 -76.9333 96° East 520 598 35,000  Level Toronto Center
Wed 10:35:20 PM 42.6833 -76.7500 97° East 510 587 35,000  Level Toronto Center
Wed 10:36:30 PM 42.6592 -76.5600 100° East 508 585 35,000 -138 Level Boston Center
Wed 10:37:30 PM 42.6325 -76.3744 101° East 508 585 34,700 -600 Descending Boston Center
Wed 10:38:30 PM 42.6075 -76.1867 100° East 508 585 33,800 -800 Descending Boston Center
Wed 10:39:30 PM 42.5800 -76.0017 101° East 503 579 33,100 -400 Descending Boston Center
Wed 10:40:30 PM 42.5503 -75.8167 102° East 503 579 33,000 -50 Descending Boston Center
Wed 10:41:30 PM 42.5244 -75.6294 101° East 498 573 33,000  Level Boston Center
Wed 10:42:30 PM 42.4997 -75.4619 101° East 498 573 33,000  Level Boston Center
Wed 10:43:30 PM 42.4711 -75.2775 102° East 498 573 33,000 -650 Level Boston Center
Wed 10:44:30 PM 42.4169 -75.1064 113° Southeast 498 573 31,700 -2,000 Descending Boston Center
Wed 10:45:30 PM 42.3542 -74.9406 117° Southeast 498 573 29,000 -2,600 Descending Boston Center
Wed 10:46:30 PM 42.2972 -74.7783 115° Southeast 487 560 26,500 -2,450 Descending Boston Center
Wed 10:47:30 PM 42.2397 -74.6219 116° Southeast 476 548 24,100 -2,350 Descending Boston Center
Wed 10:48:30 PM 42.1842 -74.4742 117° Southeast 455 524 21,800 -2,050 Descending Boston Center
Wed 10:49:30 PM 42.1303 -74.3325 117° Southeast 437 503 20,000 -1,900 Descending Boston Center
Wed 10:50:30 PM 42.0403 -74.2319 140° Southeast 373 429 18,000 -1,550 Descending Boston Center
Wed 10:51:30 PM 41.9514 -74.1819 157° South 378 435 16,900 -1,200 Descending Boston Center
Wed 10:52:30 PM 41.8481 -74.1206 156° South 378 435 15,600 -1,250 Descending Boston Center
Wed 10:53:30 PM 41.7531 -74.0653 157° South 378 435 14,400 -1,200 Descending Boston Center
Wed 10:54:30 PM 41.6683 -74.0158 156° South 372 428 13,200 -1,147 Descending Boston Center
Wed 10:55:46 PM 41.5333 -73.9333 155° Southeast 357 411 11,800 -1,147 Descending New York TRACON
Wed 10:56:46 PM 41.4500 -73.8833 156° South 324 373 10,600 -1,250 Descending New York TRACON
Wed 10:57:46 PM 41.3833 -73.8333 151° Southeast 296 341 9,300 -1,250 Descending New York TRACON
Wed 10:58:46 PM 41.3167 -73.7667 143° Southeast 294 338 8,100 -1,000 Descending New York TRACON
Wed 10:59:46 PM 41.2500 -73.7167 151° Southeast 296 341 7,300 -1,158 Descending New York TRACON
Wed 11:00:40 PM 41.1833 -73.6500 143° Southeast 289 333 5,900 -1,684 Descending New York TRACON
Wed 11:01:40 PM 41.1167 -73.6000 151° Southeast 286 329 4,100 -857 Descending New York TRACON
Wed 11:02:46 PM 41.0500 -73.6500 209° Southwest 255 293 4,100 -143 Level New York TRACON
Wed 11:03:46 PM 41.0000 -73.7000 217° Southwest 255 293 3,800 -579 Descending New York TRACON
Wed 11:04:40 PM 40.9333 -73.7500 210° Southwest 242 278 3,000 -750 Descending New York TRACON
Wed 11:05:46 PM 40.8833 -73.7833 207° Southwest 196 226 2,300 -762 Descending New York TRACON
Wed 11:06:46 PM 40.8500 -73.8167 217° Southwest 157 181 1,400 -900 Descending New York TRACON

Login

Don't have an account? Register now (free) for customized features, flight alerts, and more!